createdAt,value
2019-04-04T00:01:40.109Z,7.00
2019-04-04T00:03:41.777Z,7.00
2019-04-04T00:05:43.446Z,7.00
2019-04-04T00:07:45.109Z,7.00
2019-04-04T00:09:46.785Z,7.00
2019-04-04T00:11:49.267Z,7.00
2019-04-04T00:13:50.933Z,7.00
2019-04-04T00:15:52.597Z,7.10
2019-04-04T00:17:54.490Z,7.10
2019-04-04T00:19:56.148Z,7.10
2019-04-04T00:21:57.812Z,7.10
2019-04-04T00:23:59.495Z,7.10
2019-04-04T00:26:01.169Z,7.10
2019-04-04T00:28:02.860Z,7.10
2019-04-04T00:30:04.677Z,7.10
2019-04-04T00:32:06.345Z,7.10
2019-04-04T00:34:08.013Z,7.00
2019-04-04T00:36:09.690Z,7.00
2019-04-04T00:38:11.361Z,6.90
2019-04-04T00:40:13.028Z,6.90
2019-04-04T00:42:16.857Z,6.90
2019-04-04T00:44:18.581Z,6.90
2019-04-04T00:46:20.235Z,6.90
2019-04-04T00:48:22.312Z,6.90
2019-04-04T00:50:23.983Z,6.90
2019-04-04T00:52:25.653Z,6.80
2019-04-04T00:54:27.320Z,6.80
2019-04-04T00:56:28.989Z,6.80
2019-04-04T00:58:30.976Z,6.70
2019-04-04T01:00:32.653Z,6.70
2019-04-04T01:02:34.308Z,6.70
2019-04-04T01:04:36.236Z,6.70
2019-04-04T01:06:38.201Z,6.70
2019-04-04T01:08:39.877Z,6.70
2019-04-04T01:10:41.528Z,6.70
2019-04-04T01:12:43.461Z,6.70
2019-04-04T01:14:45.143Z,6.80
2019-04-04T01:16:47.080Z,6.80
2019-04-04T01:18:48.755Z,6.80
2019-04-04T01:20:51.316Z,6.80
2019-04-04T01:22:54.056Z,6.90
2019-04-04T01:24:56.800Z,6.90
2019-04-04T01:26:58.462Z,6.90
2019-04-04T01:29:00.381Z,6.90
2019-04-04T01:31:02.044Z,6.90
2019-04-04T01:33:03.925Z,6.90
2019-04-04T01:35:05.782Z,7.00
2019-04-04T01:37:07.433Z,7.00
2019-04-04T01:39:09.632Z,7.00
2019-04-04T01:41:11.301Z,7.00
2019-04-04T01:43:12.958Z,7.00
2019-04-04T01:45:14.621Z,7.00
2019-04-04T01:47:17.055Z,7.00
2019-04-04T01:49:21.184Z,7.00
2019-04-04T01:51:25.319Z,7.10
2019-04-04T01:53:29.835Z,7.10
2019-04-04T01:55:30.648Z,7.10
2019-04-04T01:57:32.566Z,7.10
2019-04-04T01:59:34.257Z,7.10
2019-04-04T02:01:36.210Z,7.10
2019-04-04T02:03:37.882Z,7.00
2019-04-04T02:05:39.553Z,7.10
2019-04-04T02:07:41.239Z,7.10
2019-04-04T02:09:43.454Z,7.10
2019-04-04T02:11:45.457Z,7.10
2019-04-04T02:13:47.119Z,7.10
2019-04-04T02:15:48.792Z,7.10
2019-04-04T02:17:51.037Z,7.00
2019-04-04T02:19:56.261Z,7.00
2019-04-04T02:21:59.865Z,7.10
2019-04-04T02:24:02.011Z,7.10
2019-04-04T02:26:05.268Z,7.10
2019-04-04T02:28:08.869Z,7.00
2019-04-04T02:30:14.936Z,7.00
2019-04-04T02:32:15.937Z,7.00
2019-04-04T02:34:17.611Z,6.90
2019-04-04T02:36:19.289Z,6.90
2019-04-04T02:38:20.967Z,6.90
2019-04-04T02:40:22.633Z,6.90
2019-04-04T02:42:24.304Z,6.80
2019-04-04T02:44:25.993Z,6.80
2019-04-04T02:46:27.662Z,6.70
2019-04-04T02:48:29.669Z,6.70
2019-04-04T02:50:34.383Z,6.70
2019-04-04T02:52:34.889Z,6.80
2019-04-04T02:54:36.566Z,6.90
2019-04-04T02:56:38.230Z,6.80
2019-04-04T02:58:40.172Z,6.80
2019-04-04T03:00:41.854Z,6.80
2019-04-04T03:02:43.512Z,6.90
2019-04-04T03:04:46.839Z,6.90
2019-04-04T03:06:49.350Z,7.00
2019-04-04T03:08:51.019Z,7.00
2019-04-04T03:10:52.696Z,6.90
2019-04-04T03:12:58.170Z,7.00
2019-04-04T03:14:57.937Z,7.00
2019-04-04T03:16:59.601Z,6.90
2019-04-04T03:19:01.269Z,6.90
2019-04-04T03:21:03.055Z,6.90
2019-04-04T03:23:04.719Z,7.00
2019-04-04T03:25:06.389Z,7.00
2019-04-04T03:27:08.071Z,6.90
2019-04-04T03:29:10.692Z,6.90
2019-04-04T03:31:12.955Z,6.80
2019-04-04T03:33:14.910Z,6.80
2019-04-04T03:35:16.877Z,6.80
2019-04-04T03:37:18.542Z,6.70
2019-04-04T03:39:20.541Z,6.80
2019-04-04T03:41:22.381Z,6.80
2019-04-04T03:43:24.032Z,6.80
2019-04-04T03:45:27.352Z,6.80
2019-04-04T03:47:29.286Z,6.80
2019-04-04T03:49:30.955Z,6.80
2019-04-04T03:51:37.071Z,6.80
2019-04-04T03:53:38.449Z,6.80
2019-04-04T03:55:40.124Z,6.70
2019-04-04T03:57:41.802Z,6.70
2019-04-04T03:59:43.472Z,6.70
2019-04-04T04:01:46.766Z,6.60
2019-04-04T04:03:49.133Z,6.70
2019-04-04T04:05:50.804Z,6.70
2019-04-04T04:07:52.646Z,6.70
2019-04-04T04:09:58.968Z,6.60
2019-04-04T04:11:58.993Z,6.60
2019-04-04T04:14:00.953Z,6.60
2019-04-04T04:16:03.838Z,6.60
2019-04-04T04:18:05.982Z,6.60
2019-04-04T04:20:07.648Z,6.60
2019-04-04T04:22:12.753Z,6.50
2019-04-04T04:24:12.893Z,6.50
2019-04-04T04:26:14.580Z,6.50
2019-04-04T04:28:19.691Z,6.60
2019-04-04T04:30:19.816Z,6.60
2019-04-04T04:32:22.805Z,6.60
2019-04-04T04:34:25.020Z,6.50
2019-04-04T04:36:26.689Z,6.50
2019-04-04T04:38:28.367Z,6.50
2019-04-04T04:40:30.050Z,6.50
2019-04-04T04:42:31.817Z,6.60
2019-04-04T04:44:37.845Z,6.60
2019-04-04T04:46:37.070Z,6.60
2019-04-04T04:48:38.742Z,6.50
2019-04-04T04:50:41.039Z,6.50
2019-04-04T04:52:46.464Z,6.60
2019-04-04T04:54:46.789Z,6.60
2019-04-04T04:56:48.708Z,6.60
2019-04-04T04:58:50.387Z,6.60
2019-04-04T05:00:52.063Z,6.50
2019-04-04T05:02:53.873Z,6.50
2019-04-04T05:04:59.018Z,6.50
2019-04-04T05:06:59.158Z,6.50
2019-04-04T05:09:00.829Z,6.50
2019-04-04T05:11:02.528Z,6.50
2019-04-04T05:13:04.237Z,6.40
2019-04-04T05:15:05.925Z,6.40
2019-04-04T05:17:08.136Z,6.40
2019-04-04T05:19:11.185Z,6.40
2019-04-04T05:21:24.374Z,6.40
2019-04-04T05:23:16.753Z,6.40
2019-04-04T05:25:18.414Z,6.40
2019-04-04T05:27:20.199Z,6.40
2019-04-04T05:29:21.969Z,6.40
2019-04-04T05:31:23.648Z,6.50
2019-04-04T05:33:27.271Z,6.50
2019-04-04T05:35:28.892Z,6.50
2019-04-04T05:37:30.569Z,6.50
2019-04-04T05:39:32.553Z,6.50
2019-04-04T05:41:37.147Z,6.60
2019-04-04T05:43:38.153Z,6.50
2019-04-04T05:45:40.068Z,6.50
2019-04-04T05:47:41.747Z,6.50
2019-04-04T05:49:43.521Z,6.50
2019-04-04T05:51:46.345Z,6.60
2019-04-04T05:53:49.005Z,6.60
2019-04-04T05:55:50.672Z,6.70
2019-04-04T05:57:52.374Z,6.70
2019-04-04T05:59:55.988Z,6.70
2019-04-04T06:01:57.732Z,6.90
2019-04-04T06:03:59.521Z,6.90
2019-04-04T06:06:01.956Z,6.80
2019-04-04T06:08:03.741Z,6.80
2019-04-04T06:10:06.113Z,6.80
2019-04-04T06:12:07.802Z,6.80
2019-04-04T06:14:09.478Z,6.90
2019-04-04T06:16:11.145Z,6.90
2019-04-04T06:18:12.825Z,6.90
2019-04-04T06:20:16.742Z,6.90
2019-04-04T06:22:19.080Z,6.90
2019-04-04T06:24:22.402Z,7.00
2019-04-04T06:26:24.069Z,7.10
2019-04-04T06:28:25.748Z,7.10
2019-04-04T06:30:27.426Z,7.10
2019-04-04T06:32:30.961Z,7.10
2019-04-04T06:34:33.013Z,7.10
2019-04-04T06:36:34.921Z,7.10
2019-04-04T06:38:37.069Z,7.20
2019-04-04T06:40:38.830Z,7.20
2019-04-04T06:42:40.605Z,7.10
2019-04-04T06:44:43.970Z,7.00
2019-04-04T06:46:45.924Z,7.00
2019-04-04T06:48:47.602Z,7.10
2019-04-04T06:50:49.266Z,7.10
2019-04-04T06:52:51.277Z,7.00
2019-04-04T06:54:53.010Z,6.90
2019-04-04T06:56:55.079Z,6.90
2019-04-04T06:58:56.771Z,6.90
2019-04-04T07:00:58.441Z,6.80
2019-04-04T07:03:00.125Z,6.90
2019-04-04T07:05:01.795Z,6.90
2019-04-04T07:07:03.584Z,7.00
2019-04-04T07:09:06.045Z,7.10
2019-04-04T07:11:20.613Z,7.20
2019-04-04T07:13:21.457Z,7.20
2019-04-04T07:15:15.907Z,7.20
2019-04-04T07:17:18.029Z,7.20
2019-04-04T07:19:19.713Z,7.20
2019-04-04T07:21:21.752Z,7.30
2019-04-04T07:23:27.415Z,7.30
2019-04-04T07:25:27.006Z,7.30
2019-04-04T07:27:28.700Z,7.40
2019-04-04T07:29:30.385Z,7.40
2019-04-04T07:31:34.034Z,7.40
2019-04-04T07:33:35.621Z,7.60
2019-04-04T07:35:37.280Z,7.70
2019-04-04T07:37:38.954Z,7.80
2019-04-04T07:39:40.628Z,7.80
2019-04-04T07:41:45.010Z,7.90
2019-04-04T07:43:45.877Z,8.00
2019-04-04T07:45:47.542Z,8.00
2019-04-04T07:47:49.216Z,8.00
2019-04-04T07:49:50.886Z,8.10
2019-04-04T07:51:52.989Z,8.10
2019-04-04T07:53:54.654Z,8.10
2019-04-04T07:55:56.313Z,8.10
2019-04-04T07:57:58.002Z,8.20
2019-04-04T07:59:59.672Z,8.20
2019-04-04T08:02:01.342Z,8.30
2019-04-04T08:04:03.305Z,8.40
2019-04-04T08:06:04.962Z,8.40
2019-04-04T08:08:06.640Z,8.50
2019-04-04T08:10:20.059Z,8.50
2019-04-04T08:12:11.973Z,8.60
2019-04-04T08:14:13.641Z,8.60
2019-04-04T08:16:15.568Z,8.70
2019-04-04T08:18:17.525Z,8.70
2019-04-04T08:20:19.195Z,8.70
2019-04-04T08:22:20.990Z,8.90
2019-04-04T08:24:22.942Z,8.90
2019-04-04T08:26:24.597Z,8.90
2019-04-04T08:28:26.609Z,9.00
2019-04-04T08:30:28.277Z,9.10
2019-04-04T08:32:30.216Z,9.20
2019-04-04T08:34:31.902Z,9.30
2019-04-04T08:36:35.772Z,9.10
2019-04-04T08:38:37.453Z,9.20
2019-04-04T08:40:39.131Z,9.10
2019-04-04T08:42:40.889Z,9.20
2019-04-04T08:44:42.559Z,9.10
2019-04-04T08:46:44.225Z,9.20
2019-04-04T08:48:46.165Z,9.30
2019-04-04T08:50:47.828Z,9.30
2019-04-04T08:52:49.796Z,9.20
2019-04-04T08:54:51.464Z,9.30
2019-04-04T08:56:53.133Z,9.30
2019-04-04T08:58:55.169Z,9.40
2019-04-04T09:00:56.838Z,9.50
2019-04-04T09:02:58.492Z,9.50
2019-04-04T09:05:11.181Z,9.60
2019-04-04T09:07:04.073Z,9.60
2019-04-04T09:09:05.748Z,9.60
2019-04-04T09:11:07.439Z,9.40
2019-04-04T09:13:09.168Z,9.40
2019-04-04T09:15:10.845Z,9.40
2019-04-04T09:17:12.509Z,9.30
2019-04-04T09:19:14.177Z,9.30
2019-04-04T09:21:15.847Z,9.40
2019-04-04T09:23:17.505Z,9.40
2019-04-04T09:25:19.176Z,9.50
2019-04-04T09:27:20.846Z,9.40
2019-04-04T09:29:22.521Z,9.50
2019-04-04T09:31:24.448Z,9.50
2019-04-04T09:33:26.116Z,9.50
2019-04-04T09:35:27.794Z,9.60
2019-04-04T09:37:29.465Z,9.60
2019-04-04T09:39:31.453Z,9.70
2019-04-04T09:41:33.118Z,9.60
2019-04-04T09:43:34.777Z,9.50
2019-04-04T09:45:36.745Z,9.50
2019-04-04T09:47:38.708Z,9.60
2019-04-04T09:49:40.383Z,9.60
2019-04-04T09:51:42.044Z,9.60
2019-04-04T09:53:52.947Z,9.60
2019-04-04T09:55:47.284Z,9.50
2019-04-04T09:57:48.940Z,9.50
2019-04-04T09:59:50.625Z,9.50
2019-04-04T10:01:52.392Z,9.60
2019-04-04T10:03:54.051Z,9.60
2019-04-04T10:05:55.733Z,9.50
2019-04-04T10:07:57.528Z,9.50
2019-04-04T10:09:59.270Z,9.60
2019-04-04T10:12:00.941Z,9.50
2019-04-04T10:14:04.141Z,9.60
2019-04-04T10:16:06.085Z,9.50
2019-04-04T10:18:07.738Z,9.60
2019-04-04T10:20:09.739Z,9.60
2019-04-04T10:22:11.480Z,9.60
2019-04-04T10:24:13.425Z,9.60
2019-04-04T10:26:15.098Z,9.70
2019-04-04T10:28:16.756Z,9.90
2019-04-04T10:30:18.713Z,9.90
2019-04-04T10:32:20.772Z,10.10
2019-04-04T10:34:22.737Z,10.10
2019-04-04T10:36:24.693Z,10.20
2019-04-04T10:38:26.353Z,10.10
2019-04-04T10:40:28.033Z,10.30
2019-04-04T10:42:29.697Z,10.30
2019-04-04T10:44:31.369Z,10.30
2019-04-04T10:46:33.050Z,10.30
2019-04-04T10:48:34.712Z,10.40
2019-04-04T10:50:36.397Z,10.30
2019-04-04T10:52:38.066Z,10.40
2019-04-04T10:54:39.729Z,10.60
2019-04-04T10:56:41.411Z,10.60
2019-04-04T10:58:43.195Z,10.50
2019-04-04T11:00:44.869Z,10.50
2019-04-04T11:02:46.786Z,10.60
2019-04-04T11:04:48.453Z,10.50
2019-04-04T11:06:50.126Z,10.50
2019-04-04T11:08:52.053Z,10.50
2019-04-04T11:10:53.730Z,10.40
2019-04-04T11:12:55.395Z,10.30
2019-04-04T11:14:57.409Z,10.30
2019-04-04T11:16:59.063Z,10.10
2019-04-04T11:19:00.734Z,10.20
2019-04-04T11:21:02.409Z,10.30
2019-04-04T11:23:04.069Z,10.40
2019-04-04T11:25:06.058Z,10.30
2019-04-04T11:27:07.726Z,10.30
2019-04-04T11:29:09.628Z,10.30
2019-04-04T11:31:11.305Z,10.30
2019-04-04T11:33:12.989Z,10.30
2019-04-04T11:35:15.056Z,10.20
2019-04-04T11:37:17.017Z,10.10
2019-04-04T11:39:19.277Z,10.10
2019-04-04T11:41:20.953Z,10.00
2019-04-04T11:43:22.606Z,10.10
2019-04-04T11:45:24.545Z,10.00
2019-04-04T11:47:26.286Z,10.00
2019-04-04T11:49:28.244Z,9.90
2019-04-04T11:51:30.302Z,9.90
2019-04-04T11:53:32.272Z,9.80
2019-04-04T11:55:34.248Z,9.80
2019-04-04T11:57:36.433Z,9.90
2019-04-04T11:59:38.344Z,9.90
2019-04-04T12:01:41.546Z,10.00
2019-04-04T12:03:43.212Z,10.00
2019-04-04T12:05:44.897Z,10.10
2019-04-04T12:07:46.566Z,10.20
2019-04-04T12:09:48.237Z,10.10
2019-04-04T12:11:49.908Z,10.10
2019-04-04T12:13:51.568Z,10.10
2019-04-04T12:15:53.517Z,10.10
2019-04-04T12:17:55.184Z,10.20
2019-04-04T12:19:57.126Z,10.20
2019-04-04T12:21:58.856Z,10.30
2019-04-04T12:24:00.574Z,10.20
2019-04-04T12:26:02.244Z,10.30
2019-04-04T12:28:03.914Z,10.30
2019-04-04T12:30:05.581Z,10.30
2019-04-04T12:32:07.566Z,10.30
2019-04-04T12:34:09.355Z,10.30
2019-04-04T12:36:11.101Z,10.30
2019-04-04T12:38:12.765Z,10.40
2019-04-04T12:40:20.334Z,10.50
2019-04-04T12:42:18.005Z,10.50
2019-04-04T12:44:19.668Z,10.60
2019-04-04T12:46:21.334Z,10.60
2019-04-04T12:48:22.997Z,10.50
2019-04-04T12:50:24.664Z,10.40
2019-04-04T12:52:26.584Z,10.30
2019-04-04T12:54:28.244Z,10.20
2019-04-04T12:56:29.942Z,10.20
2019-04-04T12:58:31.701Z,10.10
2019-04-04T13:00:33.376Z,10.10
2019-04-04T13:02:35.045Z,10.00
2019-04-04T13:04:36.705Z,10.10
2019-04-04T13:06:38.373Z,10.00
2019-04-04T13:08:40.041Z,10.00
2019-04-04T13:10:41.701Z,10.00
2019-04-04T13:12:43.375Z,10.00
2019-04-04T13:14:45.033Z,9.90
2019-04-04T13:16:46.704Z,9.90
2019-04-04T13:18:48.369Z,9.90
2019-04-04T13:20:50.038Z,9.90
2019-04-04T13:22:51.709Z,9.90
2019-04-04T13:24:53.371Z,9.90
2019-04-04T13:26:55.041Z,9.90
2019-04-04T13:28:56.937Z,9.90
2019-04-04T13:30:58.606Z,9.90
2019-04-04T13:33:00.276Z,9.80
2019-04-04T13:35:04.927Z,9.80
2019-04-04T13:37:05.534Z,9.90
2019-04-04T13:39:09.376Z,9.90
2019-04-04T13:41:21.345Z,9.90
2019-04-04T13:43:14.615Z,9.80
2019-04-04T13:45:16.282Z,9.90
2019-04-04T13:47:18.280Z,9.90
2019-04-04T13:49:19.949Z,9.80
2019-04-04T13:51:21.654Z,9.80
2019-04-04T13:53:25.452Z,9.80
2019-04-04T13:55:27.409Z,9.80
2019-04-04T13:57:29.733Z,9.80
2019-04-04T13:59:31.401Z,9.70
2019-04-04T14:01:33.062Z,9.80
2019-04-04T14:03:34.733Z,9.70
2019-04-04T14:05:36.397Z,9.70
2019-04-04T14:07:38.157Z,9.60
2019-04-04T14:09:39.820Z,9.60
2019-04-04T14:11:42.180Z,9.60
2019-04-04T14:13:43.965Z,9.50
2019-04-04T14:15:45.629Z,9.50
2019-04-04T14:17:47.353Z,9.50
2019-04-04T14:19:49.439Z,9.50
2019-04-04T14:21:51.094Z,9.50
2019-04-04T14:23:53.134Z,9.50
2019-04-04T14:25:55.321Z,9.50
2019-04-04T14:27:58.217Z,9.60
2019-04-04T14:30:00.753Z,9.60
2019-04-04T14:32:02.449Z,9.60
2019-04-04T14:34:04.196Z,9.60
2019-04-04T14:36:05.865Z,9.50
2019-04-04T14:38:07.558Z,9.50
2019-04-04T14:40:09.217Z,9.60
2019-04-04T14:42:10.894Z,9.60
2019-04-04T14:44:15.421Z,9.60
2019-04-04T14:46:16.121Z,9.60
2019-04-04T14:48:18.081Z,9.60
2019-04-04T14:50:20.043Z,9.60
2019-04-04T14:52:24.098Z,9.60
2019-04-04T14:54:29.044Z,9.60
2019-04-04T14:56:29.167Z,9.60
2019-04-04T14:58:31.113Z,9.50
2019-04-04T15:00:33.090Z,9.60
2019-04-04T15:02:34.765Z,9.60
2019-04-04T15:04:36.428Z,9.50
2019-04-04T15:06:38.098Z,9.50
2019-04-04T15:08:39.777Z,9.50
2019-04-04T15:10:41.747Z,9.50
2019-04-04T15:12:43.426Z,9.50
2019-04-04T15:14:45.084Z,9.50
2019-04-04T15:16:46.750Z,9.40
2019-04-04T15:18:48.429Z,9.40
2019-04-04T15:20:50.158Z,9.40
2019-04-04T15:22:51.829Z,9.40
2019-04-04T15:24:53.493Z,9.30
2019-04-04T15:26:55.156Z,9.30
2019-04-04T15:28:56.842Z,9.40
2019-04-04T15:30:58.506Z,9.40
2019-04-04T15:33:02.623Z,9.30
2019-04-04T15:35:04.085Z,9.30
2019-04-04T15:37:05.753Z,9.40
2019-04-04T15:39:07.432Z,9.40
2019-04-04T15:41:09.093Z,9.40
2019-04-04T15:43:10.774Z,9.40
2019-04-04T15:45:12.437Z,9.40
2019-04-04T15:47:14.141Z,9.40
2019-04-04T15:49:15.835Z,9.40
2019-04-04T15:51:17.498Z,9.40
2019-04-04T15:53:19.170Z,9.40
2019-04-04T15:55:20.842Z,9.40
2019-04-04T15:57:22.506Z,9.50
2019-04-04T15:59:24.493Z,9.50
2019-04-04T16:01:26.157Z,9.50
2019-04-04T16:03:27.837Z,9.60
2019-04-04T16:05:29.492Z,9.60
2019-04-04T16:07:31.158Z,9.60
2019-04-04T16:09:32.825Z,9.60
2019-04-04T16:11:34.499Z,9.60
2019-04-04T16:13:36.481Z,9.60
2019-04-04T16:15:38.145Z,9.70
2019-04-04T16:17:39.816Z,9.70
2019-04-04T16:19:41.828Z,9.70
2019-04-04T16:21:43.492Z,9.70
2019-04-04T16:23:45.463Z,9.60
2019-04-04T16:25:47.501Z,9.60
2019-04-04T16:27:49.262Z,9.60
2019-04-04T16:29:50.935Z,9.60
2019-04-04T16:31:52.594Z,9.50
2019-04-04T16:33:54.621Z,9.50
2019-04-04T16:35:56.532Z,9.50
2019-04-04T16:37:58.199Z,9.50
2019-04-04T16:40:08.721Z,9.40
2019-04-04T16:42:03.453Z,9.40
2019-04-04T16:44:05.121Z,9.40
2019-04-04T16:46:06.789Z,9.40
2019-04-04T16:48:08.457Z,9.40
2019-04-04T16:50:10.399Z,9.40
2019-04-04T16:52:12.049Z,9.30
2019-04-04T16:54:13.713Z,9.30
2019-04-04T16:56:15.661Z,9.30
2019-04-04T16:58:17.330Z,9.20
2019-04-04T17:00:20.848Z,9.20
2019-04-04T17:02:22.608Z,9.20
2019-04-04T17:04:24.303Z,9.10
2019-04-04T17:06:25.957Z,9.10
2019-04-04T17:08:27.961Z,9.10
2019-04-04T17:10:29.621Z,9.00
2019-04-04T17:12:31.285Z,9.00
2019-04-04T17:14:33.287Z,9.00
2019-04-04T17:16:35.323Z,9.00
2019-04-04T17:18:36.989Z,9.00
2019-04-04T17:20:38.663Z,9.00
2019-04-04T17:22:40.325Z,8.90
2019-04-04T17:24:42.006Z,8.90
2019-04-04T17:26:43.785Z,8.90
2019-04-04T17:28:45.643Z,8.90
2019-04-04T17:30:47.397Z,8.90
2019-04-04T17:32:50.192Z,8.80
2019-04-04T17:34:52.467Z,8.80
2019-04-04T17:36:54.246Z,8.80
2019-04-04T17:38:56.097Z,8.80
2019-04-04T17:40:58.156Z,8.80
2019-04-04T17:43:00.120Z,8.70
2019-04-04T17:45:02.569Z,8.70
2019-04-04T17:47:05.366Z,8.70
2019-04-04T17:49:07.496Z,8.70
2019-04-04T17:51:09.170Z,8.60
2019-04-04T17:53:10.985Z,8.70
2019-04-04T17:55:12.812Z,8.70
2019-04-04T17:57:14.526Z,8.70
2019-04-04T17:59:16.589Z,8.70
2019-04-04T18:01:18.254Z,8.70
2019-04-04T18:03:19.904Z,8.70
2019-04-04T18:05:21.581Z,8.70
2019-04-04T18:07:23.244Z,8.70
2019-04-04T18:09:31.707Z,8.70
2019-04-04T18:11:28.468Z,8.70
2019-04-04T18:13:32.034Z,8.70
2019-04-04T18:15:33.692Z,8.70
2019-04-04T18:17:35.351Z,8.70
2019-04-04T18:19:37.069Z,8.70
2019-04-04T18:21:39.133Z,8.70
2019-04-04T18:23:40.807Z,8.70
2019-04-04T18:25:42.478Z,8.70
2019-04-04T18:27:44.481Z,8.70
2019-04-04T18:29:46.154Z,8.70
2019-04-04T18:31:47.820Z,8.60
2019-04-04T18:33:49.554Z,8.60
2019-04-04T18:35:51.267Z,8.60
2019-04-04T18:37:53.000Z,8.60
2019-04-04T18:39:55.054Z,8.60
2019-04-04T18:41:56.721Z,8.60
2019-04-04T18:43:58.376Z,8.60
2019-04-04T18:46:00.071Z,8.50
2019-04-04T18:48:01.823Z,8.50
2019-04-04T18:50:03.553Z,8.50
2019-04-04T18:52:05.214Z,8.50
2019-04-04T18:54:06.885Z,8.50
2019-04-04T18:56:08.557Z,8.50
2019-04-04T18:58:10.217Z,8.50
2019-04-04T19:00:12.903Z,8.50
2019-04-04T19:02:14.569Z,8.40
2019-04-04T19:04:16.225Z,8.40
2019-04-04T19:06:17.889Z,8.40
2019-04-04T19:08:19.565Z,8.40
2019-04-04T19:10:21.237Z,8.40
2019-04-04T19:12:22.905Z,8.40
2019-04-04T19:14:24.564Z,8.40
2019-04-04T19:16:26.245Z,8.40
2019-04-04T19:18:28.177Z,8.40
2019-04-04T19:20:29.845Z,8.40
2019-04-04T19:22:31.758Z,8.40
2019-04-04T19:24:33.412Z,8.40
2019-04-04T19:26:35.132Z,8.40
2019-04-04T19:28:37.156Z,8.40
2019-04-04T19:30:38.808Z,8.40
2019-04-04T19:32:40.472Z,8.40
2019-04-04T19:34:43.733Z,8.30
2019-04-04T19:36:45.617Z,8.30
2019-04-04T19:38:47.561Z,8.30
2019-04-04T19:40:49.337Z,8.30
2019-04-04T19:42:51.006Z,8.30
2019-04-04T19:44:53.814Z,8.30
2019-04-04T19:46:55.635Z,8.30
2019-04-04T19:48:57.292Z,8.30
2019-04-04T19:50:59.321Z,8.30
2019-04-04T19:53:00.977Z,8.30
2019-04-04T19:55:02.639Z,8.30
2019-04-04T19:57:04.576Z,8.30
2019-04-04T19:59:06.253Z,8.30
2019-04-04T20:01:08.825Z,8.30
2019-04-04T20:03:10.487Z,8.30
2019-04-04T20:05:12.149Z,8.30
2019-04-04T20:07:13.817Z,8.30
2019-04-04T20:09:15.813Z,8.30
2019-04-04T20:11:17.487Z,8.30
2019-04-04T20:13:30.361Z,8.30
2019-04-04T20:15:23.229Z,8.30
2019-04-04T20:17:25.502Z,8.30
2019-04-04T20:19:30.050Z,8.30
2019-04-04T20:21:31.915Z,8.30
2019-04-04T20:23:33.817Z,8.30
2019-04-04T20:25:36.050Z,8.30
2019-04-04T20:27:37.717Z,8.30
2019-04-04T20:29:39.377Z,8.30
2019-04-04T20:31:41.051Z,8.30
2019-04-04T20:33:42.981Z,8.20
2019-04-04T20:35:45.078Z,8.20
2019-04-04T20:37:46.759Z,8.30
2019-04-04T20:39:48.684Z,8.20
2019-04-04T20:41:50.527Z,8.20
2019-04-04T20:43:52.496Z,8.20
2019-04-04T20:45:54.665Z,8.20
2019-04-04T20:47:56.853Z,8.20
2019-04-04T20:49:58.516Z,8.20
2019-04-04T20:52:00.509Z,8.20
2019-04-04T20:54:02.177Z,8.20
2019-04-04T20:56:04.492Z,8.20
2019-04-04T20:58:06.157Z,8.20
2019-04-04T21:00:07.839Z,8.10
2019-04-04T21:02:09.514Z,8.20
2019-04-04T21:04:11.168Z,8.20
2019-04-04T21:06:12.824Z,8.20
2019-04-04T21:08:14.503Z,8.10
2019-04-04T21:10:16.161Z,8.10
2019-04-04T21:12:17.848Z,8.10
2019-04-04T21:14:19.504Z,8.10
2019-04-04T21:16:21.197Z,8.10
2019-04-04T21:18:22.862Z,8.10
2019-04-04T21:20:24.797Z,8.10
2019-04-04T21:22:27.671Z,8.10
2019-04-04T21:24:29.729Z,8.10
2019-04-04T21:26:31.413Z,8.00
2019-04-04T21:28:33.077Z,8.00
2019-04-04T21:30:35.066Z,8.00
2019-04-04T21:32:36.744Z,8.00
2019-04-04T21:34:38.654Z,8.10
2019-04-04T21:36:40.325Z,8.00
2019-04-04T21:38:41.985Z,8.10
2019-04-04T21:40:43.637Z,8.00
2019-04-04T21:42:45.309Z,8.00
2019-04-04T21:44:47.269Z,8.00
2019-04-04T21:46:49.233Z,8.00
2019-04-04T21:48:50.897Z,8.00
2019-04-04T21:50:52.565Z,8.00
2019-04-04T21:52:54.224Z,8.00
2019-04-04T21:54:55.893Z,7.90
2019-04-04T21:56:57.564Z,8.00
2019-04-04T21:58:59.242Z,8.00
2019-04-04T22:01:00.920Z,8.00
2019-04-04T22:03:02.586Z,7.90
2019-04-04T22:05:05.531Z,7.90
2019-04-04T22:07:07.200Z,7.90
2019-04-04T22:09:10.934Z,7.90
2019-04-04T22:11:12.589Z,7.90
2019-04-04T22:13:14.700Z,7.90
2019-04-04T22:15:16.356Z,7.90
2019-04-04T22:17:18.033Z,7.90
2019-04-04T22:19:19.965Z,7.90
2019-04-04T22:21:21.629Z,7.90
2019-04-04T22:23:23.302Z,7.90
2019-04-04T22:25:24.969Z,7.90
2019-04-04T22:27:26.884Z,7.90
2019-04-04T22:29:28.837Z,7.80
2019-04-04T22:31:30.508Z,7.80
2019-04-04T22:33:32.173Z,7.80
2019-04-04T22:35:33.842Z,7.80
2019-04-04T22:37:35.509Z,7.80
2019-04-04T22:39:37.182Z,7.70
2019-04-04T22:41:38.845Z,7.70
2019-04-04T22:43:40.523Z,7.70
2019-04-04T22:45:42.445Z,7.70
2019-04-04T22:47:44.124Z,7.70
2019-04-04T22:49:46.042Z,7.70
2019-04-04T22:51:47.954Z,7.70
2019-04-04T22:53:49.637Z,7.60
2019-04-04T22:55:51.294Z,7.70
2019-04-04T22:57:52.956Z,7.60
2019-04-04T22:59:54.629Z,7.60
2019-04-04T23:01:56.298Z,7.60
2019-04-04T23:03:57.968Z,7.60
2019-04-04T23:05:59.630Z,7.60
2019-04-04T23:08:01.334Z,7.60
2019-04-04T23:10:04.025Z,7.60
2019-04-04T23:12:05.976Z,7.60
2019-04-04T23:14:07.643Z,7.60
2019-04-04T23:16:09.620Z,7.60
2019-04-04T23:18:11.297Z,7.60
2019-04-04T23:20:14.157Z,7.60
2019-04-04T23:22:15.816Z,7.50
2019-04-04T23:24:17.472Z,7.50
2019-04-04T23:26:19.384Z,7.60
2019-04-04T23:28:21.045Z,7.60
2019-04-04T23:30:22.713Z,7.60
2019-04-04T23:32:24.377Z,7.60
2019-04-04T23:34:26.056Z,7.60
2019-04-04T23:36:34.966Z,7.60
2019-04-04T23:38:31.276Z,7.60
2019-04-04T23:40:33.049Z,7.50
2019-04-04T23:42:34.725Z,7.50
2019-04-04T23:44:36.397Z,7.50
2019-04-04T23:46:38.044Z,7.50
2019-04-04T23:48:39.725Z,7.50
2019-04-04T23:50:41.481Z,7.60
2019-04-04T23:52:43.381Z,7.60
2019-04-04T23:54:45.049Z,7.60
2019-04-04T23:56:46.715Z,7.60
2019-04-04T23:58:48.392Z,7.50
